Observations for Trim Patrick St
| Time | AQI | Temp °C | Hum % | Pres Pa | CO μg/m³ | H₂S μg/m³ | NO μg/m³ | NO₂ μg/m³ | O₃ μg/m³ | SO₂ μg/m³ | PM1 μg/m³ | PM2.5 μg/m³ | PM10 μg/m³ |
|---|---|---|---|---|---|---|---|---|---|---|---|---|---|
| Wednesday 5 August 2026 | |||||||||||||
| 09:44 | 2 | 18.6 | 62 | 81,853 | 0.14 | 0 | 3.23 | 5.75 | 56.79 | 0 | 2 | 7.1 | 7.81 |
| 09:43 | 2 | 18.5 | 63 | 82,277 | 0.12 | 0 | 3.1 | 5 | 55.09 | 0 | 2 | 6.3 | 6.93 |
| 09:42 | 2 | 18.4 | 62 | 82,607 | 0.11 | 0 | 3.08 | 4.78 | 57.71 | 0 | 2 | 6.36 | 7 |
| 09:41 | 2 | 18.4 | 62 | 82,874 | 0.13 | 0 | 3.07 | 6.61 | 54.25 | 0 | 2.86 | 7.14 | 7.85 |
| 09:40 | 2 | 18.3 | 63 | 83,180 | 0.12 | 0 | 2.87 | 4.94 | 53.13 | 0 | 2 | 7.09 | 7.8 |
| 09:39 | 2 | 18.3 | 63 | 83,804 | 0.12 | 0 | 2.94 | 4.87 | 55.89 | 0 | 2.86 | 7.08 | 7.79 |
| 09:38 | 2 | 18.2 | 62 | 84,636 | 0.12 | 0 | 3.02 | 4.73 | 52.71 | 0 | 2.86 | 7.1 | 7.81 |
| 09:37 | 2 | 18.2 | 63 | 85,618 | 0.13 | 0 | 3.04 | 5.63 | 55.36 | 0 | 2.86 | 7.08 | 7.79 |
| 09:36 | 2 | 18.1 | 63 | 86,722 | 0.15 | 0 | 3.03 | 5.64 | 54.98 | 0 | 2.86 | 7.09 | 7.79 |
| 09:35 | 2 | 18.1 | 63 | 87,887 | 0.13 | 0 | 3.11 | 4.97 | 55.5 | 0 | 2 | 7.08 | 7.79 |
| 09:34 | 2 | 18.1 | 63 | 89,509 | 0.12 | 0 | 3.07 | 5.27 | 56.63 | 0 | 2 | 6.32 | 6.95 |
| 09:33 | 2 | 18 | 63 | 91,147 | 0.11 | 0 | 2.97 | 5.5 | 48.91 | 0 | 2.86 | 7.05 | 7.76 |
| 09:32 | 2 | 17.9 | 63 | 93,220 | 0.13 | 0 | 2.86 | 4.77 | 51.86 | 0 | 2 | 6.31 | 6.94 |
| 09:31 | 2 | 17.9 | 64 | 95,401 | 0.12 | 0 | 2.78 | 4.5 | 50.09 | 0 | 2.86 | 6.26 | 6.88 |
| 09:30 | 2 | 17.8 | 65 | 97,874 | 0.11 | 0 | 2.77 | 7.75 | 55.1 | 0 | 2 | 5.49 | 6.03 |
| 09:29 | 2 | 17.8 | 64 | 97,930 | 0.09 | 0 | 3.08 | 6.98 | 52.53 | 0 | 2 | 5.52 | 6.08 |
| 09:28 | 2 | 17.7 | 64 | 97,770 | 0.09 | 0 | 3.03 | 6.82 | 53.71 | 0 | 2.86 | 6.26 | 6.88 |
| 09:27 | 2 | 17.7 | 64 | 98,007 | 0.08 | 0 | 3.15 | 8.68 | 44.73 | 0 | 2 | 5.55 | 6.1 |
| 09:26 | 2 | 17.7 | 64 | 98,860 | 0.06 | 0 | 3.15 | 4.93 | 56.39 | 0 | 2 | 5.54 | 6.09 |
| 09:25 | 2 | 17.7 | 64 | 99,604 | 0.08 | 0 | 2.93 | 4.74 | 53.38 | 0 | 2 | 5.52 | 6.07 |